createdAt,value
2022-11-20T00:00:53.769Z,13.00
2022-11-20T00:03:25.714Z,13.40
2022-11-20T00:06:01.195Z,9.50
2022-11-20T00:08:32.855Z,12.90
2022-11-20T00:11:12.787Z,9.80
2022-11-20T00:13:48.791Z,13.10
2022-11-20T00:16:22.452Z,14.50
2022-11-20T00:18:55.338Z,14.00
2022-11-20T00:21:28.921Z,15.70
2022-11-20T00:24:01.512Z,14.80
2022-11-20T00:29:04.855Z,13.90
2022-11-20T00:31:37.116Z,14.20
2022-11-20T00:34:08.803Z,15.00
2022-11-20T00:36:40.620Z,10.10
2022-11-20T00:39:12.336Z,14.40
2022-11-20T00:41:44.080Z,14.50
2022-11-20T00:44:16.086Z,14.30
2022-11-20T00:46:48.077Z,14.00
2022-11-20T00:49:20.165Z,13.30
2022-11-20T00:51:52.063Z,12.90
2022-11-20T00:54:23.833Z,14.10
2022-11-20T00:56:57.600Z,14.10
2022-11-20T00:59:29.316Z,14.60
2022-11-20T01:02:01.053Z,13.30
2022-11-20T01:04:33.017Z,14.00
2022-11-20T01:07:04.718Z,14.20
2022-11-20T01:09:36.741Z,12.50
2022-11-20T01:12:09.781Z,12.90
2022-11-20T01:14:41.887Z,12.30
2022-11-20T01:17:13.644Z,12.70
2022-11-20T01:19:45.378Z,12.40
2022-11-20T01:22:17.035Z,11.80
2022-11-20T01:24:49.046Z,12.30
2022-11-20T01:27:21.175Z,11.90
2022-11-20T01:29:55.766Z,11.70
2022-11-20T01:32:31.524Z,13.00
2022-11-20T01:35:03.231Z,12.20
2022-11-20T01:37:34.917Z,12.60
2022-11-20T01:40:07.973Z,8.60
2022-11-20T01:42:57.802Z,12.20
2022-11-20T01:46:05.657Z,12.80
2022-11-20T01:48:42.601Z,12.20
2022-11-20T01:51:23.073Z,12.60
2022-11-20T01:53:58.331Z,13.00
2022-11-20T01:56:33.656Z,12.40
2022-11-20T01:59:09.242Z,13.10
2022-11-20T02:01:41.189Z,13.20
2022-11-20T02:04:15.440Z,12.90
2022-11-20T02:06:50.375Z,13.50
2022-11-20T02:09:22.215Z,13.50
2022-11-20T02:11:54.386Z,13.50
2022-11-20T02:14:27.276Z,13.70
2022-11-20T02:16:59.653Z,12.80
2022-11-20T02:19:32.966Z,14.90
2022-11-20T02:22:09.742Z,13.50
2022-11-20T02:24:42.015Z,14.30
2022-11-20T02:27:16.247Z,14.90
2022-11-20T02:29:51.878Z,13.70
2022-11-20T02:32:26.091Z,13.60
2022-11-20T02:34:57.957Z,15.10
2022-11-20T02:37:36.684Z,15.00
2022-11-20T02:40:11.187Z,15.90
2022-11-20T02:42:42.877Z,15.40
2022-11-20T02:45:15.457Z,14.40
2022-11-20T02:47:47.298Z,14.90
2022-11-20T02:50:19.309Z,16.60
2022-11-20T02:52:51.006Z,16.60
2022-11-20T02:55:23.032Z,16.10
2022-11-20T02:57:54.753Z,16.30
2022-11-20T03:00:26.958Z,16.90
2022-11-20T03:02:58.618Z,16.50
2022-11-20T03:05:30.306Z,16.30
2022-11-20T03:08:01.979Z,16.30
2022-11-20T03:10:33.718Z,16.40
2022-11-20T03:13:05.412Z,11.80
2022-11-20T03:15:39.152Z,14.90
2022-11-20T03:18:10.804Z,16.40
2022-11-20T03:20:42.481Z,16.50
2022-11-20T03:23:14.195Z,16.80
2022-11-20T03:25:46.024Z,17.60
2022-11-20T03:28:17.807Z,16.50
2022-11-20T03:30:49.564Z,14.70
2022-11-20T03:33:21.253Z,17.10
2022-11-20T03:35:52.956Z,15.90
2022-11-20T03:38:24.711Z,16.50
2022-11-20T03:41:02.663Z,15.50
2022-11-20T03:43:35.060Z,16.80
2022-11-20T03:46:07.891Z,16.00
2022-11-20T03:48:39.937Z,16.20
2022-11-20T03:51:13.760Z,17.50
2022-11-20T03:53:47.727Z,16.70
2022-11-20T03:56:22.092Z,16.60
2022-11-20T03:58:54.011Z,17.30
2022-11-20T04:01:28.310Z,11.10
2022-11-20T04:04:00.314Z,16.50
2022-11-20T04:06:35.603Z,17.50
2022-11-20T04:09:07.784Z,17.10
2022-11-20T04:11:41.614Z,17.00
2022-11-20T04:14:17.996Z,16.60
2022-11-20T04:16:49.763Z,16.20
2022-11-20T04:19:21.639Z,11.80
2022-11-20T04:21:54.567Z,15.80
2022-11-20T04:26:56.453Z,16.40
2022-11-20T04:29:28.225Z,17.30
2022-11-20T04:31:59.956Z,16.90
2022-11-20T04:34:31.639Z,17.40
2022-11-20T04:37:03.504Z,17.20
2022-11-20T04:39:35.260Z,21.20
2022-11-20T04:42:24.903Z,19.40
2022-11-20T04:44:56.690Z,20.30
2022-11-20T04:47:28.383Z,20.00
2022-11-20T04:50:00.521Z,19.80
2022-11-20T04:52:32.108Z,22.70
2022-11-20T04:55:03.768Z,21.60
2022-11-20T04:57:35.415Z,16.60
2022-11-20T05:00:09.068Z,22.70
2022-11-20T05:02:41.496Z,20.90
2022-11-20T05:05:13.593Z,21.50
2022-11-20T05:07:45.960Z,20.80
2022-11-20T05:10:19.858Z,19.00
2022-11-20T05:12:51.639Z,21.30
2022-11-20T05:15:23.339Z,20.10
2022-11-20T05:17:55.617Z,19.50
2022-11-20T05:20:27.324Z,18.90
2022-11-20T05:23:01.175Z,18.60
2022-11-20T05:25:32.906Z,16.70
2022-11-20T05:28:04.929Z,17.30
2022-11-20T05:30:36.780Z,16.50
2022-11-20T05:33:09.685Z,17.40
2022-11-20T05:35:41.524Z,18.80
2022-11-20T05:38:13.546Z,10.60
2022-11-20T05:40:45.282Z,16.90
2022-11-20T05:43:17.119Z,21.70
2022-11-20T05:45:56.616Z,19.60
2022-11-20T05:48:28.485Z,18.50
2022-11-20T05:51:02.477Z,13.50
2022-11-20T05:53:35.860Z,17.20
2022-11-20T05:56:11.864Z,17.90
2022-11-20T05:58:44.313Z,16.70
2022-11-20T06:01:21.680Z,17.30
2022-11-20T06:03:54.359Z,17.00
2022-11-20T06:06:27.526Z,18.50
2022-11-20T06:09:00.372Z,17.80
2022-11-20T06:11:32.085Z,19.10
2022-11-20T06:14:03.863Z,17.50
2022-11-20T06:16:35.586Z,18.30
2022-11-20T06:19:07.278Z,18.00
2022-11-20T06:21:38.941Z,16.30
2022-11-20T06:24:12.707Z,15.40
2022-11-20T06:26:44.720Z,18.40
2022-11-20T06:29:16.693Z,19.30
2022-11-20T06:31:48.433Z,13.90
2022-11-20T06:34:20.457Z,20.40
2022-11-20T06:36:52.098Z,19.20
2022-11-20T06:39:24.084Z,18.90
2022-11-20T06:41:58.951Z,19.10
2022-11-20T06:44:31.369Z,19.50
2022-11-20T06:47:03.096Z,19.00
2022-11-20T06:49:35.343Z,19.70
2022-11-20T06:52:07.297Z,20.70
2022-11-20T06:54:38.954Z,19.20
2022-11-20T06:57:10.774Z,19.30
2022-11-20T06:59:42.476Z,18.60
2022-11-20T07:02:14.612Z,19.60
2022-11-20T07:04:46.451Z,19.30
2022-11-20T07:07:18.180Z,17.90
2022-11-20T07:09:49.941Z,21.00
2022-11-20T07:12:22.017Z,18.40
2022-11-20T07:14:53.663Z,18.20
2022-11-20T07:17:25.342Z,19.30
2022-11-20T07:19:57.006Z,19.80
2022-11-20T07:22:28.637Z,19.20
2022-11-20T07:25:00.340Z,12.80
2022-11-20T07:27:32.486Z,20.30
2022-11-20T07:30:05.106Z,16.40
2022-11-20T07:32:37.139Z,17.50
2022-11-20T07:35:10.217Z,18.10
2022-11-20T07:37:41.915Z,19.40
2022-11-20T07:40:15.580Z,17.80
2022-11-20T07:42:53.031Z,18.00
2022-11-20T07:45:26.490Z,19.50
2022-11-20T07:47:58.184Z,18.30
2022-11-20T07:50:29.913Z,20.00
2022-11-20T07:53:10.887Z,19.70
2022-11-20T07:55:42.682Z,17.60
2022-11-20T07:58:14.950Z,11.30
2022-11-20T08:00:46.718Z,20.70
2022-11-20T08:03:24.354Z,20.80
2022-11-20T08:06:00.215Z,19.80
2022-11-20T08:08:33.801Z,18.90
2022-11-20T08:11:32.183Z,19.90
2022-11-20T08:14:16.781Z,19.80
2022-11-20T08:16:51.284Z,21.30
2022-11-20T08:19:23.916Z,19.30
2022-11-20T08:21:57.138Z,19.50
2022-11-20T08:24:29.179Z,20.20
2022-11-20T08:27:02.746Z,19.20
2022-11-20T08:29:34.473Z,20.80
2022-11-20T08:32:06.412Z,21.40
2022-11-20T08:34:44.498Z,18.70
2022-11-20T08:37:16.499Z,19.50
2022-11-20T08:39:49.185Z,20.10
2022-11-20T08:44:53.318Z,18.60
2022-11-20T08:47:25.865Z,18.80
2022-11-20T08:49:57.971Z,20.40
2022-11-20T08:52:30.230Z,20.30
2022-11-20T08:55:03.043Z,20.10
2022-11-20T08:57:37.437Z,19.00
2022-11-20T09:00:15.237Z,18.80
2022-11-20T09:02:48.514Z,19.70
2022-11-20T09:05:20.553Z,20.90
2022-11-20T09:07:53.069Z,20.50
2022-11-20T09:10:26.270Z,20.80
2022-11-20T09:12:59.209Z,19.60
2022-11-20T09:15:31.332Z,19.70
2022-11-20T09:18:05.419Z,19.80
2022-11-20T09:20:37.878Z,19.00
2022-11-20T09:23:09.683Z,18.70
2022-11-20T09:25:41.904Z,19.80
2022-11-20T09:28:14.271Z,19.00
2022-11-20T09:30:47.472Z,18.30
2022-11-20T09:33:19.972Z,19.60
2022-11-20T09:35:52.398Z,19.20
2022-11-20T09:38:24.043Z,19.90
2022-11-20T09:41:04.883Z,14.40
2022-11-20T09:43:49.129Z,19.60
2022-11-20T09:46:30.420Z,19.00
2022-11-20T09:49:30.624Z,19.60
2022-11-20T09:52:12.163Z,20.10
2022-11-20T09:54:45.146Z,20.00
2022-11-20T09:57:21.391Z,18.10
2022-11-20T09:59:57.111Z,20.10
2022-11-20T10:02:41.073Z,19.20
2022-11-20T10:05:19.159Z,19.90
2022-11-20T10:08:01.556Z,21.50
2022-11-20T10:10:43.770Z,18.90
2022-11-20T10:16:11.383Z,20.60
2022-11-20T10:18:55.533Z,20.10
2022-11-20T10:21:38.086Z,20.20
2022-11-20T10:24:40.854Z,19.50
2022-11-20T10:27:31.280Z,21.60
2022-11-20T10:30:10.863Z,21.20
2022-11-20T10:32:45.229Z,20.80
2022-11-20T10:35:25.627Z,21.50
2022-11-20T10:38:03.029Z,20.20
2022-11-20T10:40:40.517Z,20.80
2022-11-20T10:43:18.440Z,20.00
2022-11-20T10:46:00.352Z,19.90
2022-11-20T10:48:34.501Z,20.10
2022-11-20T10:51:32.815Z,18.10
2022-11-20T10:54:16.133Z,19.20
2022-11-20T10:56:52.171Z,19.90
2022-11-20T10:59:49.314Z,19.40
2022-11-20T11:02:23.468Z,20.80
2022-11-20T11:04:56.074Z,19.70
2022-11-20T11:07:37.120Z,19.40
2022-11-20T11:10:19.022Z,18.40
2022-11-20T11:12:51.341Z,20.90
2022-11-20T11:15:31.816Z,18.80
2022-11-20T11:18:03.650Z,17.20
2022-11-20T11:20:35.611Z,19.00
2022-11-20T11:23:28.648Z,19.50
2022-11-20T11:26:03.314Z,19.10
2022-11-20T11:28:36.198Z,18.00
2022-11-20T11:31:07.972Z,18.80
2022-11-20T11:33:39.621Z,17.20
2022-11-20T11:36:25.806Z,21.70
2022-11-20T11:38:57.701Z,18.00
2022-11-20T11:41:38.305Z,20.10
2022-11-20T11:44:37.992Z,18.10
2022-11-20T11:47:27.643Z,17.70
2022-11-20T11:50:16.591Z,17.40
2022-11-20T11:52:52.396Z,20.40
2022-11-20T11:55:35.348Z,18.30
2022-11-20T12:00:53.778Z,19.30
2022-11-20T12:03:31.464Z,18.10
2022-11-20T12:06:07.697Z,20.70
2022-11-20T12:08:49.322Z,20.00
2022-11-20T12:11:26.347Z,19.30
2022-11-20T12:14:05.309Z,17.70
2022-11-20T12:16:40.817Z,19.00
2022-11-20T12:19:15.368Z,17.70
2022-11-20T12:22:05.336Z,18.50
2022-11-20T12:24:46.833Z,18.60
2022-11-20T12:27:45.663Z,18.40
2022-11-20T12:30:19.575Z,19.90
2022-11-20T12:33:14.787Z,20.90
2022-11-20T12:36:07.690Z,21.70
2022-11-20T12:39:10.878Z,21.30
2022-11-20T12:42:11.561Z,20.10
2022-11-20T12:45:15.379Z,20.60
2022-11-20T12:48:19.593Z,20.30
2022-11-20T12:51:14.946Z,19.00
2022-11-20T12:54:00.590Z,21.10
2022-11-20T12:56:42.714Z,20.20
2022-11-20T12:59:31.988Z,20.00
2022-11-20T13:02:16.912Z,20.40
2022-11-20T13:05:19.179Z,20.10
2022-11-20T13:07:55.119Z,20.40
2022-11-20T13:10:35.204Z,23.40
2022-11-20T13:13:17.346Z,21.20
2022-11-20T13:15:56.844Z,15.10
2022-11-20T13:18:29.548Z,21.80
2022-11-20T13:23:32.670Z,19.30
2022-11-20T13:26:16.968Z,18.70
2022-11-20T13:28:49.643Z,19.10
2022-11-20T13:34:07.851Z,17.70
2022-11-20T13:36:50.365Z,20.20
2022-11-20T13:39:30.442Z,21.60
2022-11-20T13:42:04.229Z,20.10
2022-11-20T13:44:41.990Z,23.30
2022-11-20T13:47:24.878Z,20.50
2022-11-20T13:52:42.409Z,20.40
2022-11-20T13:55:24.622Z,20.80
2022-11-20T13:58:15.356Z,21.70
2022-11-20T14:00:53.784Z,21.10
2022-11-20T14:03:58.855Z,20.70
2022-11-20T14:06:29.420Z,20.50
2022-11-20T14:09:02.214Z,22.90
2022-11-20T14:11:34.488Z,22.70
2022-11-20T14:14:15.412Z,23.70
2022-11-20T14:16:47.721Z,22.60
2022-11-20T14:19:38.178Z,25.10
2022-11-20T14:22:22.569Z,26.40
2022-11-20T14:25:06.696Z,27.30
2022-11-20T14:27:41.595Z,28.00
2022-11-20T14:30:19.415Z,28.00
2022-11-20T14:32:52.810Z,28.70
2022-11-20T14:35:29.503Z,30.00
2022-11-20T14:38:03.254Z,28.80
2022-11-20T14:40:37.869Z,27.90
2022-11-20T14:43:22.033Z,25.90
2022-11-20T14:46:00.334Z,28.00
2022-11-20T14:48:39.483Z,28.30
2022-11-20T14:51:14.018Z,26.10
2022-11-20T14:53:46.547Z,26.90
2022-11-20T14:56:25.865Z,27.20
2022-11-20T14:59:01.476Z,28.50
2022-11-20T15:01:34.844Z,26.80
2022-11-20T15:04:11.423Z,28.10
2022-11-20T15:06:54.900Z,29.90
2022-11-20T15:09:27.160Z,29.30
2022-11-20T15:12:02.286Z,30.00
2022-11-20T15:14:35.235Z,29.90
2022-11-20T15:17:06.951Z,29.70
2022-11-20T15:19:38.865Z,21.10
2022-11-20T15:22:17.180Z,29.70
2022-11-20T15:24:49.863Z,32.10
2022-11-20T15:27:22.560Z,31.80
2022-11-20T15:32:24.514Z,28.70
2022-11-20T15:34:56.215Z,27.90
2022-11-20T15:37:30.041Z,30.10
2022-11-20T15:40:02.530Z,30.80
2022-11-20T15:42:34.856Z,28.50
2022-11-20T15:45:07.208Z,30.30
2022-11-20T15:47:39.032Z,30.60
2022-11-20T15:50:19.096Z,30.70
2022-11-20T15:52:51.389Z,28.40
2022-11-20T15:55:23.422Z,33.30
2022-11-20T15:57:55.472Z,32.20
2022-11-20T16:00:27.397Z,32.90
2022-11-20T16:02:59.696Z,33.60
2022-11-20T16:05:33.660Z,33.90
2022-11-20T16:08:11.075Z,36.80
2022-11-20T16:10:44.085Z,37.10
2022-11-20T16:13:35.616Z,38.10
2022-11-20T16:16:11.345Z,41.90
2022-11-20T16:18:43.160Z,43.10
2022-11-20T16:21:15.933Z,27.50
2022-11-20T16:23:48.301Z,36.40
2022-11-20T16:26:21.807Z,36.80
2022-11-20T16:28:54.344Z,33.40
2022-11-20T16:31:26.776Z,32.70
2022-11-20T16:34:00.685Z,31.30
2022-11-20T16:36:33.144Z,28.70
2022-11-20T16:39:06.686Z,30.90
2022-11-20T16:41:39.489Z,29.50
2022-11-20T16:44:12.580Z,28.40
2022-11-20T16:46:45.085Z,29.60
2022-11-20T16:49:17.098Z,27.90
2022-11-20T16:51:49.281Z,26.80
2022-11-20T16:54:21.662Z,28.30
2022-11-20T16:56:54.446Z,27.50
2022-11-20T16:59:26.412Z,27.80
2022-11-20T17:01:58.233Z,26.00
2022-11-20T17:04:30.768Z,27.30
2022-11-20T17:07:07.864Z,28.20
2022-11-20T17:09:40.203Z,29.20
2022-11-20T17:12:11.910Z,29.60
2022-11-20T17:14:43.813Z,32.50
2022-11-20T17:17:16.218Z,29.50
2022-11-20T17:19:48.058Z,31.00
2022-11-20T17:22:19.958Z,31.60
2022-11-20T17:24:51.736Z,31.80
2022-11-20T17:27:23.646Z,32.30
2022-11-20T17:29:57.659Z,31.90
2022-11-20T17:32:29.618Z,32.70
2022-11-20T17:35:01.848Z,33.30
2022-11-20T17:37:33.512Z,30.80
2022-11-20T17:40:05.692Z,29.10
2022-11-20T17:42:37.729Z,30.70
2022-11-20T17:45:10.233Z,28.90
2022-11-20T17:47:42.173Z,32.50
2022-11-20T17:50:14.210Z,31.70
2022-11-20T17:52:46.049Z,33.70
2022-11-20T17:55:18.248Z,23.50
2022-11-20T17:58:02.870Z,34.30
2022-11-20T18:00:34.561Z,30.80
2022-11-20T18:03:06.293Z,30.00
2022-11-20T18:05:38.085Z,32.50
2022-11-20T18:08:10.237Z,32.60
2022-11-20T18:10:41.988Z,33.20
2022-11-20T18:13:13.831Z,37.10
2022-11-20T18:15:45.494Z,36.80
2022-11-20T18:18:17.565Z,35.80
2022-11-20T18:20:54.005Z,36.60
2022-11-20T18:23:25.757Z,36.30
2022-11-20T18:26:02.355Z,35.90
2022-11-20T18:28:39.827Z,36.40
2022-11-20T18:31:12.685Z,35.70
2022-11-20T18:33:44.588Z,36.40
2022-11-20T18:36:19.470Z,35.70
2022-11-20T18:38:56.085Z,36.30
2022-11-20T18:41:43.737Z,33.60
2022-11-20T18:44:36.347Z,32.80
2022-11-20T18:47:14.685Z,35.50
2022-11-20T18:49:51.049Z,35.20
2022-11-20T18:52:26.554Z,35.30
2022-11-20T18:54:59.416Z,37.10
2022-11-20T18:57:33.632Z,35.60
2022-11-20T19:00:09.894Z,36.30
2022-11-20T19:02:43.528Z,35.80
2022-11-20T19:05:17.173Z,33.40
2022-11-20T19:07:49.184Z,38.20
2022-11-20T19:10:24.485Z,27.30
2022-11-20T19:12:56.318Z,33.80
2022-11-20T19:15:28.269Z,34.90
2022-11-20T19:18:01.437Z,37.90
2022-11-20T19:20:33.183Z,36.50
2022-11-20T19:23:05.361Z,36.60
2022-11-20T19:25:38.419Z,34.60
2022-11-20T19:28:10.318Z,37.10
2022-11-20T19:30:43.122Z,39.50
2022-11-20T19:33:15.871Z,36.60
2022-11-20T19:35:47.549Z,40.20
2022-11-20T19:38:19.423Z,36.90
2022-11-20T19:40:52.118Z,27.90
2022-11-20T19:45:54.171Z,38.10
2022-11-20T19:48:26.435Z,37.60
2022-11-20T19:50:58.536Z,38.40
2022-11-20T19:53:32.787Z,35.20
2022-11-20T19:56:06.031Z,35.10
2022-11-20T19:58:39.764Z,36.50
2022-11-20T20:01:13.599Z,36.30
2022-11-20T20:03:47.384Z,39.20
2022-11-20T20:06:23.006Z,36.60
2022-11-20T20:08:59.231Z,36.40
2022-11-20T20:11:34.136Z,35.40
2022-11-20T20:14:08.727Z,34.90
2022-11-20T20:16:42.392Z,34.60
2022-11-20T20:19:16.626Z,35.50
2022-11-20T20:21:49.823Z,33.00
2022-11-20T20:24:22.800Z,35.70
2022-11-20T20:26:58.118Z,35.20
2022-11-20T20:29:30.572Z,32.40
2022-11-20T20:32:02.770Z,34.60
2022-11-20T20:34:36.966Z,31.30
2022-11-20T20:37:10.322Z,32.40
2022-11-20T20:39:42.788Z,33.20
2022-11-20T20:42:15.172Z,34.10
2022-11-20T20:47:37.159Z,33.00
2022-11-20T20:50:11.666Z,32.10
2022-11-20T20:52:44.252Z,32.40
2022-11-20T20:57:46.690Z,30.00
2022-11-20T21:00:19.837Z,31.20
2022-11-20T21:02:51.852Z,32.50
2022-11-20T21:05:23.495Z,22.90
2022-11-20T21:08:13.381Z,25.40
2022-11-20T21:10:45.440Z,32.60
2022-11-20T21:13:17.449Z,30.20
2022-11-20T21:15:51.263Z,30.20
2022-11-20T21:18:25.164Z,31.00
2022-11-20T21:21:15.018Z,30.30
2022-11-20T21:23:49.870Z,30.20
2022-11-20T21:26:23.021Z,34.20
2022-11-20T21:28:54.693Z,34.90
2022-11-20T21:31:28.773Z,23.50
2022-11-20T21:34:02.941Z,37.10
2022-11-20T21:36:34.904Z,35.00
2022-11-20T21:39:06.737Z,31.00
2022-11-20T21:41:38.711Z,24.00
2022-11-20T21:44:31.443Z,25.10
2022-11-20T21:47:03.749Z,34.70
2022-11-20T21:49:35.506Z,33.70
2022-11-20T21:52:08.240Z,30.40
2022-11-20T21:57:10.171Z,28.80
2022-11-20T21:59:41.818Z,30.30
2022-11-20T22:02:14.783Z,29.40
2022-11-20T22:04:46.606Z,28.80
2022-11-20T22:07:18.492Z,30.00
2022-11-20T22:09:50.234Z,28.80
2022-11-20T22:12:22.608Z,29.70
2022-11-20T22:14:54.459Z,26.90
2022-11-20T22:17:40.075Z,27.40
2022-11-20T22:20:14.033Z,25.90
2022-11-20T22:22:46.014Z,27.20
2022-11-20T22:25:18.078Z,27.50
2022-11-20T22:27:50.001Z,26.90
2022-11-20T22:30:22.078Z,27.10
2022-11-20T22:32:54.134Z,25.20
2022-11-20T22:35:26.118Z,25.10
2022-11-20T22:37:58.173Z,24.40
2022-11-20T22:40:30.287Z,26.10
2022-11-20T22:43:02.788Z,27.00
2022-11-20T22:45:35.028Z,26.60
2022-11-20T22:48:08.413Z,28.50
2022-11-20T22:50:40.429Z,28.40
2022-11-20T22:53:12.509Z,22.30
2022-11-20T22:55:44.171Z,28.30
2022-11-20T22:58:15.946Z,22.40
2022-11-20T23:00:48.050Z,28.10
2022-11-20T23:03:19.785Z,19.10
2022-11-20T23:05:52.109Z,25.40
2022-11-20T23:08:24.154Z,29.60
2022-11-20T23:11:01.097Z,28.50
2022-11-20T23:13:33.497Z,26.70
2022-11-20T23:16:07.765Z,28.20
2022-11-20T23:18:40.401Z,28.70
2022-11-20T23:21:14.034Z,27.30
2022-11-20T23:23:48.918Z,27.00
2022-11-20T23:26:23.137Z,26.40
2022-11-20T23:28:56.263Z,25.50
2022-11-20T23:31:31.508Z,25.60
2022-11-20T23:34:04.316Z,25.10
2022-11-20T23:36:36.660Z,25.30
2022-11-20T23:39:09.096Z,27.40
2022-11-20T23:41:41.277Z,26.00
2022-11-20T23:44:13.115Z,26.10
2022-11-20T23:46:44.802Z,27.40
2022-11-20T23:49:16.615Z,25.60
2022-11-20T23:51:49.316Z,26.10
2022-11-20T23:54:21.273Z,26.50
2022-11-20T23:56:52.969Z,26.50
2022-11-20T23:59:24.636Z,25.90
